Time;durP1;ratioP1;P1;durP2;ratioP2;P2;SDS_P1;SDS_P2;PMS_P1;PMS_P2;Temp;Humidity;BMP_temperature;BMP_pressure;BME280_temperature;BME280_humidity;BME280_pressure;Samples;Min_cycle;Max_cycle;Signal;HPM_P1;HPM_P2
2022/02/19 09:26:22;;;;;;;5.70;3.40;;;;;;;19.26;19.33;93564.28;5048431;28;20518;-41
2022/02/19 09:28:48;;;;;;;4.35;1.90;;;;;;;20.04;18.80;93572.03;5039946;28;20025;-41
2022/02/19 09:31:14;;;;;;;3.10;1.50;;;;;;;20.32;18.72;93570.97;5027767;28;20025;-40
2022/02/19 09:33:40;;;;;;;4.18;1.80;;;;;;;20.68;17.79;93572.38;5028433;28;20018;-40
2022/02/19 09:36:07;;;;;;;4.10;1.55;;;;;;;21.31;18.86;93562.00;5029348;28;20026;-41
2022/02/19 09:38:32;;;;;;;5.20;3.10;;;;;;;22.16;16.62;93564.56;5029073;28;20086;-41
2022/02/19 09:41:00;;;;;;;4.18;1.60;;;;;;;23.05;16.42;93552.97;5039230;27;20017;-41
2022/02/19 09:43:26;;;;;;;5.97;2.10;;;;;;;22.99;15.91;93553.41;5048753;28;20021;-41
2022/02/19 09:45:51;;;;;;;5.20;1.70;;;;;;;23.40;15.60;93538.50;5048880;28;20025;-41
2022/02/19 09:48:18;;;;;;;4.40;1.60;;;;;;;23.01;16.53;93545.06;5048834;28;20497;-41
2022/02/19 09:50:48;;;;;;;4.90;1.35;;;;;;;22.74;16.45;93550.03;5049028;28;20025;-41
2022/02/19 09:53:15;;;;;;;2.63;1.25;;;;;;;22.97;16.57;93549.78;5049089;28;20059;-41
2022/02/19 09:55:40;;;;;;;2.63;1.50;;;;;;;23.25;15.56;93554.72;5048517;28;20032;-41
2022/02/19 09:58:06;;;;;;;5.20;1.85;;;;;;;22.92;15.86;93539.66;5048836;28;20025;-41
2022/02/19 10:00:34;;;;;;;2.85;1.60;;;;;;;22.71;15.41;93548.44;5049000;27;20491;-41
2022/02/19 10:03:00;;;;;;;3.42;1.48;;;;;;;22.44;15.42;93540.72;5048444;28;20111;-41
2022/02/19 10:05:29;;;;;;;2.90;1.13;;;;;;;22.71;15.65;93545.63;5048788;28;20136;-41
2022/02/19 10:08:06;;;;;;;4.68;1.20;;;;;;;22.86;15.81;93550.63;5045373;28;20084;-40
2022/02/19 10:10:34;;;;;;;4.20;1.38;;;;;;;23.51;15.47;93544.00;5046200;28;20084;-41
2022/02/19 10:13:00;;;;;;;3.65;1.55;;;;;;;24.36;14.92;93545.84;5045192;28;20027;-41
2022/02/19 10:15:44;;;;;;;3.33;1.15;;;;;;;24.99;13.91;93540.13;5045930;28;20029;-41
2022/02/19 10:18:35;;;;;;;3.45;1.02;;;;;;;25.72;14.14;93526.84;5046302;28;20020;-41
2022/02/19 10:21:26;;;;;;;1.85;1.00;;;;;;;25.96;12.44;93530.63;5044113;28;20033;-41
2022/02/19 10:23:56;;;;;;;3.00;1.38;;;;;;;25.16;13.20;93528.84;5045741;28;20032;-41
2022/02/19 10:26:22;;;;;;;2.15;1.10;;;;;;;26.03;12.42;93521.69;5046189;28;20072;-41
2022/02/19 10:29:00;;;;;;;3.13;1.25;;;;;;;26.09;12.94;93527.63;5046502;28;20422;-41
2022/02/19 10:31:26;;;;;;;4.50;1.40;;;;;;;26.66;13.05;93529.72;5045642;28;20032;-42
2022/02/19 10:34:13;;;;;;;2.42;0.98;;;;;;;26.75;11.31;93520.13;5045728;28;20025;-41
2022/02/19 10:36:54;;;;;;;4.90;1.40;;;;;;;26.83;11.35;93523.25;5046041;28;20028;-41
2022/02/19 10:39:27;;;;;;;1.75;0.80;;;;;;;25.77;11.38;93526.38;5045728;28;20031;-41
2022/02/19 10:41:54;;;;;;;2.25;1.40;;;;;;;24.07;12.81;93515.63;5045547;27;20047;-41
2022/02/19 10:44:25;;;;;;;3.80;1.45;;;;;;;24.69;12.24;93511.28;5045683;28;20064;-41
2022/02/19 10:46:52;;;;;;;3.00;2.03;;;;;;;25.38;13.33;93512.06;5046049;28;20040;-42
2022/02/19 10:49:17;;;;;;;3.30;1.00;;;;;;;25.85;12.06;93515.38;5046020;28;20077;-42
2022/02/19 10:51:44;;;;;;;1.67;1.08;;;;;;;24.82;12.45;93516.81;5045762;28;20493;-41
2022/02/19 10:54:11;;;;;;;1.88;1.20;;;;;;;24.18;13.03;93513.25;5044468;28;20473;-41
2022/02/19 10:56:37;;;;;;;3.22;1.40;;;;;;;24.76;14.06;93510.94;5045498;28;20048;-42
2022/02/19 10:59:02;;;;;;;2.90;0.88;;;;;;;24.52;12.37;93495.00;5044733;28;20063;-41
2022/02/19 11:01:29;;;;;;;4.40;1.38;;;;;;;24.00;13.03;93496.22;5045213;28;20100;-41
2022/02/19 11:03:54;;;;;;;3.00;1.27;;;;;;;23.68;14.65;93487.03;5033904;28;20040;-41
2022/02/19 11:06:21;;;;;;;6.10;1.10;;;;;;;23.16;14.33;93492.97;5033119;28;20403;-41
2022/02/19 11:08:46;;;;;;;2.38;1.17;;;;;;;22.50;14.64;93498.84;5037881;28;20037;-41
2022/02/19 11:11:12;;;;;;;2.80;1.00;;;;;;;21.56;15.82;93491.75;5035832;28;20017;-40
2022/02/19 11:13:39;;;;;;;3.97;1.30;;;;;;;20.90;16.41;93497.91;5033417;28;20021;-40
2022/02/19 11:16:05;;;;;;;3.25;1.00;;;;;;;20.45;16.12;93491.09;5025299;28;20510;-41
2022/02/19 11:18:34;;;;;;;3.67;2.10;;;;;;;20.20;19.09;93485.38;5030773;28;20044;-41
2022/02/19 11:21:04;;;;;;;77.47;6.07;;;;;;;20.92;18.31;93481.19;5035612;28;20455;-40
2022/02/19 11:23:31;;;;;;;4.35;2.17;;;;;;;21.14;17.35;93476.09;5043970;28;20444;-41
2022/02/19 11:25:58;;;;;;;5.65;1.83;;;;;;;21.19;16.60;93475.00;5044929;28;20429;-41
2022/02/19 11:28:26;;;;;;;4.93;1.98;;;;;;;21.86;16.03;93473.72;5045140;28;20044;-41
2022/02/19 11:30:55;;;;;;;2.15;1.55;;;;;;;22.70;15.37;93468.91;5043426;28;20089;-41
2022/02/19 11:33:21;;;;;;;9.25;3.13;;;;;;;22.26;15.61;93470.19;5043636;28;20025;-41
2022/02/19 11:35:47;;;;;;;4.25;1.67;;;;;;;21.31;16.39;93472.13;5045153;28;20573;-41
2022/02/19 11:38:26;;;;;;;15.73;2.42;;;;;;;21.27;16.40;93466.28;5045307;28;20021;-41
2022/02/19 11:40:59;;;;;;;5.57;3.35;;;;;;;21.96;15.09;93457.38;5044939;27;20103;-41
2022/02/19 11:43:52;;;;;;;2.75;1.00;;;;;;;22.30;15.36;93453.53;5044903;28;20033;-41
2022/02/19 11:46:20;;;;;;;1.35;0.93;;;;;;;22.83;17.22;93448.44;5044361;28;20067;-41
2022/02/19 11:48:47;;;;;;;2.50;1.10;;;;;;;23.47;14.66;93444.44;5044613;28;20112;-41
2022/02/19 11:51:26;;;;;;;3.55;1.17;;;;;;;23.66;14.62;93444.66;5043330;28;20021;-40
2022/02/19 11:53:53;;;;;;;2.22;1.17;;;;;;;23.22;16.03;93437.66;5044873;28;20045;-41
2022/02/19 11:56:39;;;;;;;1.75;1.00;;;;;;;23.41;14.36;93436.47;5044365;28;20040;-41
2022/02/19 11:59:09;;;;;;;4.65;1.30;;;;;;;23.42;14.49;93431.53;5044902;28;20064;-41
2022/02/19 12:01:35;;;;;;;2.25;1.05;;;;;;;23.11;15.66;93432.16;5044870;28;20470;-41
2022/02/19 12:04:21;;;;;;;8.20;2.97;;;;;;;22.88;15.71;93426.84;5044725;28;20108;-41
2022/02/19 12:07:06;;;;;;;1.70;1.05;;;;;;;23.66;14.07;93429.81;5043967;28;20715;-41
2022/02/19 12:09:32;;;;;;;3.17;1.40;;;;;;;23.14;16.46;93416.81;5045755;28;20036;-42
2022/02/19 12:12:03;;;;;;;3.70;1.20;;;;;;;23.72;15.38;93413.19;5047257;28;20025;-41
2022/02/19 12:14:59;;;;;;;1.27;1.10;;;;;;;24.00;14.46;93411.59;5048530;28;20028;-41
2022/02/19 12:17:46;;;;;;;2.30;1.50;;;;;;;23.56;14.06;93420.91;5047212;28;20040;-42
2022/02/19 12:20:32;;;;;;;2.28;1.00;;;;;;;22.09;15.17;93425.00;5047530;28;20497;-42
2022/02/19 12:23:01;;;;;;;1.80;0.90;;;;;;;21.20;16.13;93416.75;5045710;28;20025;-40
2022/02/19 12:26:01;;;;;;;4.50;1.67;;;;;;;21.11;17.41;93424.00;5047475;28;20063;-41
2022/02/19 12:28:27;;;;;;;8.88;1.50;;;;;;;21.32;17.08;93423.75;5047644;28;20522;-41
2022/02/19 12:31:32;;;;;;;2.80;1.90;;;;;;;;;;5047712;28;20082;-41
2022/02/19 12:33:58;;;;;;;4.25;1.48;;;;;;;20.97;17.95;93404.28;5025011;28;20541;-41
2022/02/19 12:36:24;;;;;;;2.22;1.40;;;;;;;20.85;17.54;93403.63;5008677;28;20653;-41
2022/02/19 12:38:54;;;;;;;2.78;1.40;;;;;;;20.63;16.33;93398.84;5036120;28;20045;-41
2022/02/19 12:41:20;;;;;;;5.57;2.80;;;;;;;20.49;17.46;93398.75;5047343;27;20566;-41
2022/02/19 12:44:02;;;;;;;2.03;1.17;;;;;;;20.89;16.48;93403.84;5047446;28;20033;-41
2022/02/19 12:46:29;;;;;;;4.88;1.27;;;;;;;21.13;15.75;93405.19;5047522;28;20107;-41
2022/02/19 12:48:55;;;;;;;2.85;1.20;;;;;;;20.51;16.18;93398.88;5046095;28;20033;-41
2022/02/19 12:51:24;;;;;;;2.17;1.20;;;;;;;20.13;17.49;93382.66;5047251;28;20029;-41
2022/02/19 12:53:50;;;;;;;2.33;1.08;;;;;;;20.25;19.15;93400.91;5047485;28;20025;-42
2022/02/19 12:56:15;;;;;;;3.22;1.60;;;;;;;20.46;17.34;93394.41;5047693;28;20027;-41
2022/02/19 12:58:50;;;;;;;1.20;0.88;;;;;;;20.62;16.67;93392.50;5047283;28;20021;-41
2022/02/19 13:01:15;;;;;;;3.38;1.52;;;;;;;20.20;16.75;93387.28;5046806;28;20048;-41
2022/02/19 13:03:45;;;;;;;3.13;1.25;;;;;;;20.05;17.99;93396.22;5046022;28;20113;-41
2022/02/19 13:06:10;;;;;;;3.13;1.33;;;;;;;20.21;17.20;93391.53;5047241;28;20028;-41
2022/02/19 13:08:37;;;;;;;1.35;1.13;;;;;;;20.07;17.07;93393.53;5046831;28;20510;-41
2022/02/19 13:11:03;;;;;;;7.22;1.48;;;;;;;20.15;20.00;93386.31;5046920;28;20078;-41
2022/02/19 13:13:36;;;;;;;10.25;2.67;;;;;;;20.03;18.38;93384.88;5046421;28;20024;-41
2022/02/19 13:16:02;;;;;;;2.28;1.25;;;;;;;19.76;17.40;93374.19;5046876;28;20041;-41
2022/02/19 13:18:39;;;;;;;6.07;1.60;;;;;;;19.46;17.93;93383.59;5046698;28;20382;-41
2022/02/19 13:21:10;;;;;;;4.95;1.95;;;;;;;19.59;18.36;93374.59;5046575;28;20040;-41
2022/02/19 13:23:36;;;;;;;2.38;1.40;;;;;;;19.41;18.09;93385.44;5046156;28;20040;-41
2022/02/19 13:26:02;;;;;;;5.68;2.67;;;;;;;19.25;19.75;93381.59;5046621;28;20025;-41
2022/02/19 13:28:28;;;;;;;2.33;1.40;;;;;;;19.50;19.33;93375.44;5046939;28;20048;-41
2022/02/19 13:30:53;;;;;;;3.40;1.10;;;;;;;19.32;19.06;93375.03;5046507;28;20430;-41
2022/02/19 13:33:19;;;;;;;2.65;1.30;;;;;;;19.02;18.97;93375.25;5046666;28;20014;-41
2022/02/19 13:35:45;;;;;;;2.47;1.30;;;;;;;18.90;19.33;93380.84;5045333;28;20489;-41
2022/02/19 13:38:10;;;;;;;2.25;1.40;;;;;;;18.80;19.60;93380.94;5046416;28;20036;-41
2022/02/19 13:40:36;;;;;;;9.15;2.10;;;;;;;18.85;20.09;93385.47;5045245;27;20035;-41
2022/02/19 13:43:15;;;;;;;3.70;1.70;;;;;;;18.42;19.63;93388.94;5046444;28;20033;-41
2022/02/19 13:45:43;;;;;;;11.80;2.13;;;;;;;18.38;20.93;93385.91;5046516;28;20081;-40
2022/02/19 13:48:10;;;;;;;3.25;1.77;;;;;;;18.42;19.13;93386.16;5046684;28;20422;-40
2022/02/19 13:50:41;;;;;;;5.18;2.33;;;;;;;18.36;20.02;93385.75;5046522;28;20037;-41
2022/02/19 13:53:12;;;;;;;1.52;1.38;;;;;;;18.42;20.05;93388.94;5046223;28;20363;-41
2022/02/19 13:55:39;;;;;;;2.33;1.05;;;;;;;18.40;21.03;93386.75;5046144;28;20516;-41
2022/02/19 13:58:11;;;;;;;4.07;1.52;;;;;;;18.18;20.44;93377.66;5046827;28;20722;-40
2022/02/19 14:00:37;;;;;;;1.77;0.98;;;;;;;18.00;20.35;93384.13;5046726;28;20394;-41
2022/02/19 14:03:03;;;;;;;2.35;1.30;;;;;;;17.56;21.03;93370.75;5046108;28;20036;-40
2022/02/19 14:05:45;;;;;;;2.45;1.25;;;;;;;17.40;21.45;93372.44;5046172;28;20108;-40
2022/02/19 14:08:15;;;;;;;6.15;1.45;;;;;;;17.49;21.55;93376.50;5046234;28;20111;-37
2022/02/19 14:10:52;;;;;;;3.28;1.30;;;;;;;17.27;21.52;93361.78;5046397;28;20086;-41
2022/02/19 14:13:18;;;;;;;4.70;1.55;;;;;;;17.32;21.96;93369.84;5042361;28;20068;-40
2022/02/19 14:15:45;;;;;;;2.45;1.52;;;;;;;17.20;21.93;93369.00;5035296;28;20029;-40
2022/02/19 14:18:11;;;;;;;4.22;1.40;;;;;;;17.05;21.63;93374.19;5042144;28;20040;-40
2022/02/19 14:20:39;;;;;;;1.83;1.08;;;;;;;17.10;21.50;93376.69;5038428;28;20581;-41
2022/02/19 14:23:19;;;;;;;3.38;1.55;;;;;;;17.19;22.14;93369.59;5044750;28;20029;-40
2022/02/19 14:25:47;;;;;;;5.40;1.55;;;;;;;17.33;22.24;93378.91;5046529;28;20045;-41
2022/02/19 14:28:30;;;;;;;3.92;1.60;;;;;;;17.40;21.38;93375.22;5045822;28;20052;-39
2022/02/19 14:30:58;;;;;;;3.47;1.25;;;;;;;17.50;20.77;93375.91;5045762;28;20036;-40
2022/02/19 14:33:24;;;;;;;2.67;1.30;;;;;;;17.51;20.69;93374.59;5043983;28;20025;-41
2022/02/19 14:35:50;;;;;;;3.05;1.20;;;;;;;17.28;21.81;93380.69;5026077;28;20036;-41
2022/02/19 14:38:24;;;;;;;2.80;1.20;;;;;;;17.12;21.44;93379.63;5026388;28;20029;-40
2022/02/19 14:40:52;;;;;;;1.60;0.95;;;;;;;17.23;21.97;93376.19;5033288;28;20409;-40
2022/02/19 14:43:18;;;;;;;2.53;1.50;;;;;;;17.23;21.91;93367.09;5045390;28;20112;-40
2022/02/19 14:45:46;;;;;;;3.17;1.10;;;;;;;17.22;21.63;93377.50;5045568;28;20165;-40
2022/02/19 14:48:11;;;;;;;3.78;1.17;;;;;;;17.15;21.37;93374.91;5045388;28;20557;-40
2022/02/19 14:50:36;;;;;;;9.65;4.97;;;;;;;17.20;21.66;93382.22;5045810;28;20029;-40
2022/02/19 14:53:04;;;;;;;14.45;7.50;;;;;;;17.20;22.57;93374.59;5046038;28;20124;-40
2022/02/19 14:55:30;;;;;;;3.80;1.65;;;;;;;17.06;21.53;93367.31;5045354;28;20032;-40
2022/02/19 14:57:55;;;;;;;4.75;1.40;;;;;;;17.11;21.65;93380.94;5045343;28;20046;-40
2022/02/19 15:00:21;;;;;;;2.72;1.58;;;;;;;17.10;21.56;93373.16;5047168;28;20119;-40
2022/02/19 15:02:46;;;;;;;4.65;1.67;;;;;;;17.05;22.09;93374.19;5046726;28;20077;-41
2022/02/19 15:05:12;;;;;;;2.15;1.30;;;;;;;16.97;21.97;93373.66;5046911;28;20028;-41
2022/02/19 15:07:37;;;;;;;1.98;1.30;;;;;;;16.92;22.02;93360.75;5047845;28;20391;-40
2022/02/19 15:10:03;;;;;;;6.95;1.65;;;;;;;16.74;22.57;93362.28;5047839;28;20482;-40
2022/02/19 15:12:29;;;;;;;2.45;1.55;;;;;;;16.66;22.57;93368.75;5038779;28;20040;-40
2022/02/19 15:14:54;;;;;;;4.65;1.40;;;;;;;16.67;22.75;93373.00;5025410;28;20041;-40
2022/02/19 15:17:20;;;;;;;5.72;2.10;;;;;;;16.60;22.66;93371.13;5025139;28;20034;-41
2022/02/19 15:19:45;;;;;;;3.00;1.33;;;;;;;16.43;22.86;93362.19;5025561;28;20037;-40
2022/02/19 15:22:11;;;;;;;3.58;1.55;;;;;;;16.34;22.94;93358.09;5025676;28;20800;-40
2022/02/19 15:24:38;;;;;;;2.00;1.45;;;;;;;16.27;23.18;93353.41;5025131;28;20025;-40
2022/02/19 15:27:06;;;;;;;5.60;1.58;;;;;;;15.91;23.92;93348.75;5025177;28;20084;-39
2022/02/19 15:29:32;;;;;;;3.03;1.75;;;;;;;15.79;24.89;93361.75;5025353;28;20025;-41
2022/02/19 15:31:57;;;;;;;4.05;1.70;;;;;;;15.65;24.96;93363.53;5024864;28;20180;-40
2022/02/19 15:34:24;;;;;;;2.35;2.15;;;;;;;15.54;25.75;93369.66;5030769;28;20029;-40
2022/02/19 15:36:49;;;;;;;9.48;2.05;;;;;;;15.52;26.54;93371.53;5046909;28;20028;-39
2022/02/19 15:39:15;;;;;;;3.72;2.58;;;;;;;15.19;26.40;93371.88;5045565;28;20025;-40
2022/02/19 15:41:40;;;;;;;9.00;4.03;;;;;;;15.09;27.91;93373.88;5046684;27;20029;-40
2022/02/19 15:44:06;;;;;;;9.55;3.40;;;;;;;15.01;29.13;93375.31;5046483;28;20036;-41
2022/02/19 15:46:32;;;;;;;11.00;4.40;;;;;;;15.02;30.64;93380.31;5047046;28;20031;-41
2022/02/19 15:49:00;;;;;;;5.88;3.75;;;;;;;14.90;29.78;93375.88;5047334;28;20024;-41
2022/02/19 15:51:26;;;;;;;12.70;5.15;;;;;;;14.44;31.51;93381.34;5047034;28;20029;-40
2022/02/19 15:53:51;;;;;;;17.45;6.93;;;;;;;14.20;32.44;93376.63;5047060;28;20025;-40
2022/02/19 15:56:18;;;;;;;11.15;6.63;;;;;;;14.28;31.41;93386.31;5046938;28;20029;-40
2022/02/19 15:58:43;;;;;;;18.20;6.55;;;;;;;14.21;31.32;93380.84;5047265;28;20029;-40
2022/02/19 16:01:09;;;;;;;15.13;6.57;;;;;;;14.09;32.64;93375.09;5046908;28;20093;-40
2022/02/19 16:03:34;;;;;;;18.00;8.40;;;;;;;13.96;32.42;93377.47;5046861;28;20037;-40
2022/02/19 16:06:01;;;;;;;22.70;6.95;;;;;;;13.92;32.16;93377.88;5047069;28;20036;-41
2022/02/19 16:08:28;;;;;;;13.57;7.85;;;;;;;13.76;33.12;93381.38;5047141;28;20025;-40
2022/02/19 16:10:53;;;;;;;22.85;6.45;;;;;;;13.21;35.53;93387.28;5047118;28;20108;-40
2022/02/19 16:13:19;;;;;;;18.15;7.10;;;;;;;13.11;33.73;93392.72;5042516;28;20177;-39
2022/02/19 16:15:44;;;;;;;22.70;10.75;;;;;;;12.97;34.21;93396.31;5044908;28;20514;-40
2022/02/19 16:18:10;;;;;;;16.60;7.82;;;;;;;12.59;35.47;93380.69;5043248;28;20520;-40
2022/02/19 16:20:36;;;;;;;15.55;7.25;;;;;;;12.64;34.86;93401.91;5044321;28;20119;-40
2022/02/19 16:23:02;;;;;;;18.95;7.30;;;;;;;12.42;35.23;93416.59;5044484;28;20029;-40
2022/02/19 16:25:29;;;;;;;13.35;7.43;;;;;;;12.27;35.06;93421.47;5044582;28;20413;-41
2022/02/19 16:27:56;;;;;;;21.75;9.55;;;;;;;11.93;35.85;93428.22;5044038;28;20064;-41
2022/02/19 16:30:22;;;;;;;45.35;19.48;;;;;;;12.02;35.68;93433.19;5044387;28;20029;-40
2022/02/19 16:32:48;;;;;;;37.35;16.65;;;;;;;12.02;36.69;93435.94;5037476;28;20593;-40
2022/02/19 16:35:13;;;;;;;64.25;29.33;;;;;;;11.82;36.76;93455.56;5030768;28;20483;-40
2022/02/19 16:37:39;;;;;;;41.70;19.58;;;;;;;11.82;37.69;93456.31;5024871;28;20125;-40
2022/02/19 16:40:06;;;;;;;46.05;22.05;;;;;;;11.73;37.09;93459.66;5029857;27;20169;-41
2022/02/19 16:42:31;;;;;;;37.38;17.63;;;;;;;11.66;37.03;93460.34;5044468;28;20071;-40
2022/02/19 16:44:57;;;;;;;35.58;17.85;;;;;;;11.63;37.98;93467.00;5040465;28;20056;-40
2022/02/19 16:47:22;;;;;;;23.70;12.43;;;;;;;11.31;38.84;93464.06;5035846;28;20036;-40
2022/02/19 16:49:48;;;;;;;25.83;11.57;;;;;;;11.36;36.72;93457.63;5044132;28;20036;-38
2022/02/19 16:52:16;;;;;;;15.85;7.05;;;;;;;11.22;36.35;93461.84;5044085;28;20302;-39
2022/02/19 16:54:42;;;;;;;9.38;4.22;;;;;;;11.06;37.40;93463.88;5044041;28;20048;-40
2022/02/19 16:57:08;;;;;;;11.05;5.32;;;;;;;11.01;37.85;93458.53;5046052;28;20051;-40
2022/02/19 16:59:34;;;;;;;15.60;4.85;;;;;;;10.84;39.06;93461.09;5034527;28;20093;-40
2022/02/19 17:01:59;;;;;;;14.90;5.63;;;;;;;10.71;40.62;93464.75;5047692;28;20077;-40
2022/02/19 17:04:24;;;;;;;28.83;7.60;;;;;;;10.55;38.97;93460.47;5047641;28;20093;-40
2022/02/19 17:06:50;;;;;;;22.98;8.18;;;;;;;10.27;39.87;93463.31;5047383;28;20032;-41
2022/02/19 17:09:15;;;;;;;28.05;8.00;;;;;;;10.38;38.17;93454.72;5047631;28;20025;-40
2022/02/19 17:11:41;;;;;;;20.67;7.35;;;;;;;10.16;40.40;93475.44;5047422;28;20088;-40
2022/02/19 17:14:07;;;;;;;21.90;9.00;;;;;;;10.28;39.19;93473.09;5046228;28;20471;-40
2022/02/19 17:16:32;;;;;;;20.55;7.80;;;;;;;10.12;41.92;93479.81;5047101;28;20063;-41
2022/02/19 17:19:00;;;;;;;24.70;10.27;;;;;;;9.88;40.49;93478.19;5047055;28;20025;-39
2022/02/19 17:21:25;;;;;;;43.10;21.40;;;;;;;9.57;41.74;93485.53;5047311;28;20032;-40
2022/02/19 17:23:51;;;;;;;42.50;20.08;;;;;;;9.37;41.38;93488.34;5046871;28;20482;-40
2022/02/19 17:26:19;;;;;;;39.90;15.82;;;;;;;9.58;40.99;93478.78;5047362;28;20438;-40
2022/02/19 17:28:46;;;;;;;30.52;13.38;;;;;;;9.59;41.91;93476.75;5047875;28;20045;-40
2022/02/19 17:31:12;;;;;;;28.98;13.15;;;;;;;9.49;40.97;93484.03;5047358;28;20486;-40
2022/02/19 17:33:38;;;;;;;26.38;12.38;;;;;;;9.70;41.81;93479.22;5046916;28;20036;-40
2022/02/19 17:36:04;;;;;;;93.22;38.38;;;;;;;9.46;41.20;93494.13;5046741;28;20040;-39
2022/02/19 17:38:33;;;;;;;24.60;8.95;;;;;;;9.62;40.47;93495.69;5047040;28;20039;-38
2022/02/19 17:41:02;;;;;;;17.38;6.88;;;;;;;9.52;40.74;93483.69;5043562;27;20033;-40
2022/02/19 17:43:28;;;;;;;20.85;8.88;;;;;;;9.33;40.21;93474.94;5033875;28;20037;-40
2022/02/19 17:45:54;;;;;;;17.13;8.75;;;;;;;9.15;40.18;93506.94;5043274;28;20039;-41
2022/02/19 17:48:20;;;;;;;15.65;8.15;;;;;;;9.16;39.73;93511.13;5045498;28;20031;-40
2022/02/19 17:50:46;;;;;;;9.50;3.40;;;;;;;9.17;39.06;93481.59;5046996;28;20033;-40
2022/02/19 17:53:12;;;;;;;26.85;12.95;;;;;;;9.07;42.02;93505.38;5047114;28;20112;-40
2022/02/19 17:55:39;;;;;;;17.80;8.98;;;;;;;8.61;41.83;93475.94;5047219;28;20036;-41
2022/02/19 17:58:06;;;;;;;13.93;8.07;;;;;;;8.84;42.97;93507.16;5046505;28;20544;-40
2022/02/19 18:00:32;;;;;;;10.32;6.40;;;;;;;8.37;43.43;93502.47;5045364;28;20530;-40
2022/02/19 18:02:58;;;;;;;12.52;8.20;;;;;;;8.35;43.97;93507.78;5046542;28;20037;-39
2022/02/19 18:05:23;;;;;;;20.63;13.43;;;;;;;8.51;44.38;93511.41;5046606;28;20512;-40
2022/02/19 18:07:49;;;;;;;27.17;15.20;;;;;;;8.54;45.86;93520.63;5046266;28;20678;-41
2022/02/19 18:10:14;;;;;;;43.70;17.88;;;;;;;8.54;45.29;93515.84;5046591;28;20032;-40
2022/02/19 18:12:41;;;;;;;36.33;21.83;;;;;;;8.49;43.87;93508.47;5045382;28;20036;-40
2022/02/19 18:15:08;;;;;;;33.55;18.70;;;;;;;8.49;43.67;93516.00;5046413;28;20025;-40
2022/02/19 18:17:34;;;;;;;30.30;17.77;;;;;;;8.25;47.15;93511.47;5046787;28;20041;-41
2022/02/19 18:20:00;;;;;;;31.65;13.07;;;;;;;8.25;45.08;93514.97;5046545;28;20229;-39
2022/02/19 18:22:26;;;;;;;19.63;10.95;;;;;;;8.29;45.90;93511.91;5046386;28;20033;-41
2022/02/19 18:24:52;;;;;;;20.90;9.15;;;;;;;8.19;46.03;93519.81;5045772;28;20109;-41
2022/02/19 18:27:17;;;;;;;25.00;12.43;;;;;;;8.05;46.53;93528.63;5036563;28;20061;-39
2022/02/19 18:29:43;;;;;;;15.65;9.38;;;;;;;7.75;47.45;93536.47;5027269;28;20033;-39
2022/02/19 18:32:09;;;;;;;12.57;6.45;;;;;;;7.59;47.42;93535.50;5044475;28;20033;-40
2022/02/19 18:34:35;;;;;;;8.48;5.28;;;;;;;6.88;49.23;93527.22;5034171;28;20033;-40
2022/02/19 18:37:00;;;;;;;6.93;4.35;;;;;;;6.84;50.11;93538.50;5033879;28;20033;-40
2022/02/19 18:39:26;;;;;;;10.32;5.50;;;;;;;6.46;51.02;93533.56;5046237;28;20040;-39
2022/02/19 18:41:54;;;;;;;7.65;4.10;;;;;;;6.44;52.24;93539.59;5045675;27;20085;-40
2022/02/19 18:44:19;;;;;;;13.98;5.15;;;;;;;6.56;51.29;93534.69;5046139;28;20029;-38
2022/02/19 18:46:46;;;;;;;12.55;7.80;;;;;;;6.74;51.06;93542.16;5033546;28;20118;-40
2022/02/19 18:49:16;;;;;;;16.52;8.32;;;;;;;6.75;51.36;93546.38;5042194;28;20135;-40
2022/02/19 18:51:42;;;;;;;21.05;8.10;;;;;;;6.45;51.06;93540.34;5045465;28;20814;-39
2022/02/19 18:54:08;;;;;;;48.60;22.40;;;;;;;6.49;51.12;93555.22;5045688;28;20029;-40
2022/02/19 18:56:33;;;;;;;62.28;28.35;;;;;;;6.36;51.46;93555.16;5045353;28;20089;-40
2022/02/19 18:59:01;;;;;;;30.95;16.52;;;;;;;5.98;52.07;93559.13;5045242;28;20032;-39
2022/02/19 19:01:27;;;;;;;21.30;11.25;;;;;;;5.97;52.46;93558.41;5045675;28;20111;-38
2022/02/19 19:03:54;;;;;;;26.33;11.25;;;;;;;5.74;53.21;93553.66;5045492;28;20475;-40
2022/02/19 19:06:19;;;;;;;24.52;14.57;;;;;;;5.87;53.15;93551.78;5045567;28;20120;-40
2022/02/19 19:08:45;;;;;;;21.40;10.35;;;;;;;5.90;53.04;93555.47;5045374;28;20041;-39
2022/02/19 19:11:11;;;;;;;32.08;8.68;;;;;;;5.95;53.61;93541.72;5045362;28;20120;-40
2022/02/19 19:13:37;;;;;;;16.92;10.00;;;;;;;5.96;53.05;93553.41;5043900;28;20094;-41
2022/02/19 19:16:03;;;;;;;14.50;8.55;;;;;;;6.06;53.20;93557.28;5045336;28;20035;-40
2022/02/19 19:18:29;;;;;;;22.27;11.90;;;;;;;6.01;52.90;93560.84;5036335;28;20037;-39
2022/02/19 19:20:55;;;;;;;19.83;10.55;;;;;;;6.16;53.74;93552.19;5044811;28;20421;-39
2022/02/19 19:23:20;;;;;;;24.30;11.32;;;;;;;6.25;52.66;93558.03;5045090;28;20085;-40
2022/02/19 19:25:46;;;;;;;23.52;12.65;;;;;;;6.18;52.97;93546.91;5043802;28;20539;-40
2022/02/19 19:28:12;;;;;;;29.20;13.25;;;;;;;6.23;52.94;93557.06;5045393;28;20087;-40
2022/02/19 19:30:38;;;;;;;24.63;13.32;;;;;;;5.98;52.50;93556.38;5045292;28;20705;-39
2022/02/19 19:33:06;;;;;;;42.63;22.40;;;;;;;6.05;52.56;93561.28;5045127;28;20033;-40
2022/02/19 19:35:34;;;;;;;87.13;44.13;;;;;;;6.08;52.98;93568.47;5043855;28;20041;-39
2022/02/19 19:38:00;;;;;;;100.55;51.05;;;;;;;6.03;52.85;93577.50;5045343;28;20052;-39
2022/02/19 19:40:26;;;;;;;71.90;35.40;;;;;;;5.89;54.07;93582.13;5044550;27;20502;-40
2022/02/19 19:42:51;;;;;;;34.08;19.90;;;;;;;5.62;53.53;93574.94;5044866;28;20064;-39
2022/02/19 19:45:17;;;;;;;37.13;18.95;;;;;;;5.72;53.63;93572.56;5036016;28;20421;-40
2022/02/19 19:47:45;;;;;;;21.20;13.15;;;;;;;5.85;52.64;93567.97;5034761;28;20410;-41
2022/02/19 19:50:11;;;;;;;25.23;13.55;;;;;;;5.53;54.50;93564.31;5026528;28;20041;-40
2022/02/19 19:52:37;;;;;;;18.88;11.45;;;;;;;5.71;54.05;93563.63;5024786;28;20082;-40
2022/02/19 19:55:04;;;;;;;23.23;13.93;;;;;;;5.76;53.55;93567.56;5024883;28;20038;-40
2022/02/19 19:57:30;;;;;;;20.13;11.38;;;;;;;5.79;54.03;93550.84;5025313;28;20041;-41
2022/02/19 19:59:56;;;;;;;27.85;15.63;;;;;;;5.56;54.54;93549.59;5024835;28;20038;-41
2022/02/19 20:02:22;;;;;;;27.48;14.82;;;;;;;5.66;53.73;93563.69;5043563;28;20520;-41
2022/02/19 20:04:48;;;;;;;25.65;15.05;;;;;;;5.52;54.31;93575.78;5044811;28;20021;-40
2022/02/19 20:07:13;;;;;;;33.60;16.67;;;;;;;5.59;54.58;93575.22;5041588;28;20044;-40
2022/02/19 20:09:39;;;;;;;55.80;31.70;;;;;;;5.47;54.03;93577.31;5033213;28;20510;-40
2022/02/19 20:12:06;;;;;;;46.67;25.25;;;;;;;5.38;54.55;93574.91;5034099;28;20486;-40
2022/02/19 20:14:35;;;;;;;43.45;26.33;;;;;;;5.37;54.25;93579.66;5036253;28;20153;-40
2022/02/19 20:17:01;;;;;;;36.78;22.45;;;;;;;5.28;54.94;93593.66;5044266;28;20066;-40
2022/02/19 20:19:27;;;;;;;32.67;20.02;;;;;;;5.09;54.77;93590.09;5044784;28;20037;-40
2022/02/19 20:21:53;;;;;;;38.30;18.88;;;;;;;5.04;55.35;93598.34;5044771;28;20405;-38
2022/02/19 20:24:18;;;;;;;60.72;37.35;;;;;;;4.92;55.66;93586.75;5044334;28;20037;-40
2022/02/19 20:26:44;;;;;;;51.10;31.55;;;;;;;4.29;56.28;93531.47;5044075;28;20065;-41
2022/02/19 20:29:10;;;;;;;31.00;19.80;;;;;;;4.84;56.24;93579.59;5044461;28;20119;-41
2022/02/19 20:31:36;;;;;;;38.33;24.83;;;;;;;4.68;57.27;93592.13;5046184;28;20041;-40
2022/02/19 20:34:01;;;;;;;11.25;7.65;;;;;;;4.78;56.55;93593.31;5047840;28;20097;-40
2022/02/19 20:36:27;;;;;;;26.60;16.13;;;;;;;4.64;55.58;93594.41;5047467;28;20545;-40
2022/02/19 20:38:52;;;;;;;42.90;24.67;;;;;;;4.90;55.96;93599.44;5044019;28;20093;-38
2022/02/19 20:41:18;;;;;;;48.92;29.40;;;;;;;4.98;55.15;93600.41;5044446;27;20060;-37
2022/02/19 20:43:43;;;;;;;65.78;34.90;;;;;;;5.09;55.57;93605.78;5047360;28;20033;-38
2022/02/19 20:46:09;;;;;;;57.30;32.13;;;;;;;4.99;55.78;93602.63;5047786;28;20086;-40
2022/02/19 20:48:34;;;;;;;53.88;31.13;;;;;;;5.00;55.10;93593.13;5047537;28;20063;-39
2022/02/19 20:51:00;;;;;;;54.08;30.05;;;;;;;4.82;55.42;93601.25;5047873;28;20120;-40
2022/02/19 20:53:26;;;;;;;51.63;29.48;;;;;;;4.69;55.54;93590.88;5047475;28;20299;-40
2022/02/19 20:55:51;;;;;;;38.75;21.80;;;;;;;4.36;56.51;93597.28;5047596;28;20033;-40
2022/02/19 20:58:20;;;;;;;27.85;14.43;;;;;;;4.26;56.93;93587.91;5047422;28;20017;-39
2022/02/19 21:00:46;;;;;;;24.55;15.73;;;;;;;4.25;56.32;93591.13;5047457;28;20398;-38